Station Historical Data
Daily Summary for July 19, 2017 Units:  English    Metric   Both
« Previous Day
Next Day »
Daily Weekly Monthly Yearly Custom
  High: Low: Average:
Temperature: 91.3 °F 72.2 °F 80 °F
Dew Point: 74.5 °F 66.7 °F 69.4 °F
Humidity: 89% 52% 72%
Wind Speed: 8.2mph 0.0mph 6.5mph
Wind Gust: 8.2mph - -
Wind- - ESE
Pressure: 30.15 in 30.04 in -
Precipitation: 0.00 in    
Historical Graphs
 
 
Tabular Data for July 19, 2017
Time Temperature Dew Point Pressure Wind Wind Speed Wind Gust Humidity Rainfall Rate (Hourly) Conditions
00:03 74.9 °F 68.7 °F 30.11 in NNE 8.2 mph   81% 0.00 in BKN
00:04 74.8 °F 68.6 °F 30.11 in NNE 8.2 mph   81% 0.00 in BKN
00:09 74.6 °F 68.4 °F 30.11 in NNE 8.2 mph   81% 0.00 in BKN
00:14 74.4 °F 68.2 °F 30.11 in NNE 8.2 mph   81% 0.00 in BKN
00:19 74.3 °F 68.1 °F 30.11 in NNE 8.2 mph   81% 0.00 in BKN
00:24 74.1 °F 67.9 °F 30.11 in NNE 8.2 mph   81% 0.00 in CLR
00:29 74.0 °F 67.8 °F 30.11 in NNE 8.2 mph   81% 0.00 in CLR
00:34 73.9 °F 68.1 °F 30.11 in NNE 8.2 mph   82% 0.00 in CLR
00:39 73.8 °F 68.0 °F 30.11 in NNE 8.2 mph   82% 0.00 in CLR
00:44 73.7 °F 68.2 °F 30.11 in NNE 8.2 mph   83% 0.00 in CLR
00:49 73.5 °F 68.0 °F 30.10 in NNE 8.2 mph   83% 0.00 in CLR
00:55 73.3 °F 67.8 °F 30.10 in NNE 8.2 mph   83% 0.00 in CLR
01:00 73.3 °F 68.2 °F 30.10 in NNE 8.2 mph   84% 0.00 in CLR
01:05 73.2 °F 68.1 °F 30.11 in Calm     84% 0.00 in CLR
01:10 73.2 °F 67.7 °F 30.10 in Calm     83% 0.00 in CLR
01:15 73.3 °F 67.8 °F 30.10 in Calm     83% 0.00 in CLR
01:20 73.3 °F 67.8 °F 30.11 in NW 8.2 mph   83% 0.00 in CLR
01:25 72.7 °F 67.2 °F 30.11 in Calm     83% 0.00 in CLR
01:30 72.2 °F 66.7 °F 30.10 in Calm     83% 0.00 in CLR
01:35 72.2 °F 66.7 °F 30.11 in Calm     83% 0.00 in CLR
01:40 72.2 °F 66.7 °F 30.10 in Calm     83% 0.00 in CLR
01:45 72.2 °F 66.7 °F 30.11 in Calm     83% 0.00 in CLR
01:50 72.2 °F 66.7 °F 30.11 in Calm     83% 0.00 in CLR
01:55 72.2 °F 66.7 °F 30.10 in Calm     83% 0.00 in CLR
02:00 72.2 °F 66.7 °F 30.10 in North 8.2 mph   83% 0.00 in CLR
02:04 72.2 °F 66.7 °F 30.10 in North 8.2 mph   83% 0.00 in CLR
02:09 72.2 °F 66.7 °F 30.11 in North 8.2 mph   83% 0.00 in CLR
02:14 72.2 °F 66.7 °F 30.11 in North 8.2 mph   83% 0.00 in CLR
02:19 72.2 °F 66.7 °F 30.11 in North 8.2 mph   83% 0.00 in CLR
02:24 72.2 °F 66.7 °F 30.11 in North 8.2 mph   83% 0.00 in CLR
02:29 72.2 °F 66.7 °F 30.11 in North 8.2 mph   83% 0.00 in CLR
02:35 72.2 °F 66.7 °F 30.11 in North 8.2 mph   83% 0.00 in CLR
02:40 72.2 °F 66.7 °F 30.10 in Calm     83% 0.00 in CLR
02:45 72.2 °F 66.7 °F 30.10 in Calm     83% 0.00 in CLR
02:50 72.2 °F 66.7 °F 30.10 in Calm     83% 0.00 in CLR
02:52 72.2 °F 66.7 °F 30.10 in North 8.2 mph   83% 0.00 in CLR
02:57 72.2 °F 66.7 °F 30.10 in North 8.2 mph   83% 0.00 in CLR
03:02 72.2 °F 66.7 °F 30.10 in North 8.2 mph   83% 0.00 in CLR
03:07 72.2 °F 66.7 °F 30.10 in North 8.2 mph   83% 0.00 in CLR
03:12 72.2 °F 66.7 °F 30.10 in North 8.2 mph   83% 0.00 in CLR
03:17 72.2 °F 66.7 °F 30.09 in North 8.2 mph   83% 0.00 in CLR
03:22 72.2 °F 66.7 °F 30.10 in North 8.2 mph   83% 0.00 in CLR
03:27 72.2 °F 66.7 °F 30.10 in North 8.2 mph   83% 0.00 in CLR
03:32 72.2 °F 66.7 °F 30.09 in North 8.2 mph   83% 0.00 in CLR
03:37 72.2 °F 66.7 °F 30.09 in North 8.2 mph   83% 0.00 in CLR
03:42 72.2 °F 66.7 °F 30.09 in North 8.2 mph   83% 0.00 in CLR
03:47 72.2 °F 66.7 °F 30.09 in North 8.2 mph   83% 0.00 in CLR
03:52 72.2 °F 66.7 °F 30.09 in North 8.2 mph   83% 0.00 in CLR
03:57 72.2 °F 66.7 °F 30.10 in North 8.2 mph   83% 0.00 in CLR
04:02 72.2 °F 66.7 °F 30.10 in North 8.2 mph   83% 0.00 in CLR
04:07 72.2 °F 66.7 °F 30.09 in North 8.2 mph   83% 0.00 in CLR
04:12 72.2 °F 66.7 °F 30.10 in North 8.2 mph   83% 0.00 in CLR
04:17 72.2 °F 66.7 °F 30.10 in North 8.2 mph   83% 0.00 in CLR
04:22 72.2 °F 66.7 °F 30.10 in North 8.2 mph   83% 0.00 in CLR
04:24 72.2 °F 66.7 °F 30.10 in North 8.2 mph   83% 0.00 in CLR
04:30 72.2 °F 66.7 °F 30.10 in North 8.2 mph   83% 0.00 in CLR
04:35 72.2 °F 66.7 °F 30.10 in Calm     83% 0.00 in CLR
04:40 72.2 °F 66.7 °F 30.10 in Calm     83% 0.00 in CLR
04:45 72.2 °F 66.7 °F 30.10 in Calm     83% 0.00 in CLR
04:50 72.2 °F 66.7 °F 30.10 in North 8.2 mph   83% 0.00 in CLR
04:55 72.2 °F 66.7 °F 30.10 in Calm     83% 0.00 in CLR
05:00 72.2 °F 66.7 °F 30.10 in Calm     83% 0.00 in CLR
05:05 72.2 °F 66.7 °F 30.10 in Calm     83% 0.00 in CLR
05:10 72.2 °F 66.7 °F 30.10 in North 8.2 mph   83% 0.00 in CLR
05:15 72.2 °F 66.7 °F 30.10 in Calm     83% 0.00 in CLR
05:20 72.2 °F 66.7 °F 30.10 in North 8.2 mph   83% 0.00 in CLR
05:25 72.2 °F 66.7 °F 30.10 in Calm     83% 0.00 in CLR
05:30 72.2 °F 66.7 °F 30.10 in Calm     83% 0.00 in CLR
05:35 72.2 °F 66.7 °F 30.11 in North 8.2 mph   83% 0.00 in CLR
05:40 72.2 °F 66.7 °F 30.11 in Calm     83% 0.00 in CLR
05:45 72.2 °F 66.7 °F 30.11 in Calm     83% 0.00 in CLR
05:50 72.2 °F 66.7 °F 30.11 in Calm     83% 0.00 in CLR
05:55 72.2 °F 66.7 °F 30.11 in North 8.2 mph   83% 0.00 in CLR
06:00 72.2 °F 66.7 °F 30.11 in Calm     83% 0.00 in CLR
06:05 72.2 °F 66.7 °F 30.12 in Calm     83% 0.00 in CLR
06:10 72.2 °F 66.7 °F 30.12 in Calm     83% 0.00 in CLR
06:15 72.2 °F 66.7 °F 30.12 in Calm     83% 0.00 in CLR
06:20 72.2 °F 66.7 °F 30.12 in North 8.2 mph   83% 0.00 in CLR
06:25 72.2 °F 66.7 °F 30.12 in Calm     83% 0.00 in CLR
06:30 72.2 °F 66.7 °F 30.12 in Calm     83% 0.00 in CLR
06:35 72.2 °F 66.7 °F 30.12 in Calm     83% 0.00 in CLR
06:40 72.2 °F 66.7 °F 30.12 in North 8.2 mph   83% 0.00 in CLR
06:45 72.2 °F 66.7 °F 30.12 in North 8.2 mph   83% 0.00 in CLR
06:50 72.2 °F 66.7 °F 30.13 in North 8.2 mph   83% 0.00 in CLR
06:55 72.2 °F 66.7 °F 30.13 in North 8.2 mph   83% 0.00 in CLR
07:00 72.2 °F 66.7 °F 30.13 in North 8.2 mph   83% 0.00 in CLR
07:05 72.2 °F 66.7 °F 30.13 in North 8.2 mph   83% 0.00 in CLR
07:10 72.2 °F 66.7 °F 30.13 in North 8.2 mph   83% 0.00 in CLR
07:15 72.2 °F 66.7 °F 30.13 in North 8.2 mph   83% 0.00 in CLR
07:20 72.2 °F 66.7 °F 30.13 in North 8.2 mph   83% 0.00 in FEW
07:25 72.2 °F 66.7 °F 30.13 in North 8.2 mph   83% 0.00 in FEW
07:27 72.2 °F 66.7 °F 30.13 in North 8.2 mph   83% 0.00 in FEW
07:32 72.2 °F 66.7 °F 30.13 in North 8.2 mph   83% 0.00 in FEW
07:37 72.2 °F 66.7 °F 30.13 in North 8.2 mph   83% 0.00 in FEW
07:42 72.2 °F 66.7 °F 30.14 in North 8.2 mph   83% 0.00 in FEW
07:47 72.2 °F 66.7 °F 30.14 in North 8.2 mph   83% 0.00 in FEW
07:52 72.2 °F 66.7 °F 30.14 in North 8.2 mph   83% 0.00 in FEW
07:57 72.2 °F 66.7 °F 30.14 in North 8.2 mph   83% 0.00 in FEW
08:03 72.2 °F 66.7 °F 30.14 in North 8.2 mph   83% 0.00 in FEW
08:08 72.2 °F 66.7 °F 30.14 in North 8.2 mph   83% 0.00 in FEW
08:13 72.2 °F 66.7 °F 30.14 in North 8.2 mph   83% 0.00 in FEW
08:18 72.2 °F 66.7 °F 30.14 in North 8.2 mph   83% 0.00 in FEW
08:23 72.2 °F 66.7 °F 30.14 in North 8.2 mph   83% 0.00 in FEW
08:28 72.2 °F 66.7 °F 30.14 in North 8.2 mph   83% 0.00 in FEW
08:33 72.2 °F 66.7 °F 30.14 in North 8.2 mph   83% 0.00 in FEW
08:38 74.0 °F 70.6 °F 30.14 in NNW 8.2 mph   89% 0.00 in FEW
08:43 74.3 °F 70.5 °F 30.14 in NNW 8.2 mph   88% 0.00 in FEW
08:48 74.7 °F 70.9 °F 30.14 in NNW 8.2 mph   88% 0.00 in FEW
08:53 75.1 °F 71.0 °F 30.14 in NNW 8.2 mph   87% 0.00 in FEW
08:58 75.6 °F 71.5 °F 30.14 in NNW 8.2 mph   87% 0.00 in FEW
09:03 75.9 °F 71.4 °F 30.14 in NNW 8.2 mph   86% 0.00 in FEW
09:08 76.2 °F 71.4 °F 30.14 in NNW 8.2 mph   85% 0.00 in FEW
09:13 76.6 °F 71.4 °F 30.14 in NNW 8.2 mph   84% 0.00 in FEW
09:18 77.1 °F 70.8 °F 30.14 in WSW 8.2 mph 8.2 mph 81% 0.00 in FEW
09:23 77.5 °F 71.2 °F 30.14 in WSW 8.2 mph 8.2 mph 81% 0.00 in CLR
09:28 78.0 °F 71.7 °F 30.13 in WSW 8.2 mph   81% 0.00 in CLR
09:33 78.4 °F 72.1 °F 30.14 in WSW 8.2 mph   81% 0.00 in CLR
09:38 78.9 °F 72.6 °F 30.14 in WSW 8.2 mph 8.2 mph 81% 0.00 in CLR
09:44 79.3 °F 71.8 °F 30.14 in SW 8.2 mph 8.2 mph 78% 0.00 in CLR
09:49 79.7 °F 72.6 °F 30.14 in SW 8.2 mph   79% 0.00 in CLR
09:54 80.0 °F 72.5 °F 30.14 in SW 8.2 mph   78% 0.00 in CLR
09:59 80.3 °F 72.8 °F 30.14 in SW 8.2 mph   78% 0.00 in CLR
10:04 80.6 °F 72.7 °F 30.14 in SW 8.2 mph   77% 0.00 in CLR
10:09 81.1 °F 73.6 °F 30.14 in WNW 8.2 mph 8.2 mph 78% 0.00 in CLR
10:14 81.8 °F 73.5 °F 30.14 in WNW 8.2 mph   76% 0.00 in CLR
10:19 82.7 °F 74.4 °F 30.14 in WNW 8.2 mph   76% 0.00 in CLR
10:24 83.4 °F 73.4 °F 30.14 in SW 8.2 mph 8.2 mph 72% 0.00 in CLR
10:29 83.9 °F 73.5 °F 30.14 in SW 8.2 mph 8.2 mph 71% 0.00 in CLR
10:34 84.4 °F 74.0 °F 30.14 in SW 8.2 mph 8.2 mph 71% 0.00 in CLR
10:39 84.6 °F 73.3 °F 30.14 in NNE 8.2 mph   69% 0.00 in CLR
10:44 85.0 °F 74.5 °F 30.14 in NNW 8.2 mph   71% 0.00 in CLR
10:49 85.3 °F 74.4 °F 30.14 in West 8.2 mph   70% 0.00 in CLR
10:54 85.6 °F 74.3 °F 30.14 in West 8.2 mph   69% 0.00 in CLR
10:59 86.0 °F 74.2 °F 30.14 in NE 8.2 mph 8.2 mph 68% 0.00 in CLR
11:04 85.9 °F 73.2 °F 30.14 in SW 8.2 mph 8.2 mph 66% 0.00 in CLR
11:09 86.0 °F 73.3 °F 30.14 in NE 8.2 mph   66% 0.00 in CLR
11:15 86.1 °F 73.0 °F 30.14 in ENE 8.2 mph 8.2 mph 65% 0.00 in CLR
11:20 86.1 °F 73.0 °F 30.15 in Calm   3.0 mph 65% 0.00 in FEW
11:25 86.2 °F 72.6 °F 30.14 in Calm   2.0 mph 64% 0.00 in FEW
11:30 86.2 °F 73.9 °F 30.14 in Calm   2.0 mph 67% 0.00 in FEW
11:35 86.3 °F 73.1 °F 30.14 in NNW 8.2 mph   65% 0.00 in FEW
11:40 86.3 °F 72.7 °F 30.14 in East 8.2 mph   64% 0.00 in FEW
11:45 86.3 °F 72.2 °F 30.14 in SW 8.2 mph 8.2 mph 63% 0.00 in FEW
11:50 86.3 °F 72.7 °F 30.14 in WNW 8.2 mph   64% 0.00 in FEW
11:55 86.4 °F 71.8 °F 30.14 in SSW 8.2 mph 8.2 mph 62% 0.00 in FEW
12:00 86.4 °F 72.8 °F 30.14 in SSW 8.2 mph 8.2 mph 64% 0.00 in FEW
12:05 86.4 °F 72.3 °F 30.14 in ENE 8.2 mph   63% 0.00 in FEW
12:10 86.4 °F 71.8 °F 30.14 in East 8.2 mph 8.2 mph 62% 0.00 in FEW
12:20 87.0 °F 71.9 °F 30.14 in NNW 8.2 mph   61% 0.00 in SCT
12:25 87.3 °F 72.7 °F 30.14 in WNW 8.2 mph 8.2 mph 62% 0.00 in SCT
12:26 87.4 °F 72.3 °F 30.13 in WNW 8.2 mph 8.2 mph 61% 0.00 in SCT
12:31 87.3 °F 71.7 °F 30.13 in WSW 8.2 mph   60% 0.00 in SCT
12:36 87.2 °F 71.6 °F 30.13 in NNE 8.2 mph 8.2 mph 60% 0.00 in SCT
12:41 87.5 °F 71.9 °F 30.13 in WNW 8.2 mph   60% 0.00 in SCT
12:46 88.2 °F 72.1 °F 30.13 in West 8.2 mph 8.2 mph 59% 0.00 in SCT
12:51 88.5 °F 71.3 °F 30.12 in East 8.2 mph   57% 0.00 in SCT
12:57 88.8 °F 72.1 °F 30.12 in East 8.2 mph 8.2 mph 58% 0.00 in SCT
13:02 89.4 °F 72.7 °F 30.12 in West 8.2 mph 8.2 mph 58% 0.00 in SCT
13:07 90.0 °F 70.6 °F 30.12 in SW 8.2 mph 8.2 mph 53% 0.00 in SCT
13:12 90.6 °F 71.1 °F 30.12 in West 8.2 mph 8.2 mph 53% 0.00 in SCT
13:17 91.3 °F 72.3 °F 30.12 in SSW 8.2 mph 8.2 mph 54% 0.00 in SCT
13:22 91.2 °F 71.7 °F 30.12 in SW 8.2 mph 8.2 mph 53% 0.00 in SCT
13:27 90.5 °F 72.1 °F 30.11 in West 8.2 mph 8.2 mph 55% 0.00 in SCT
13:32 90.3 °F 73.0 °F 30.11 in WNW 8.2 mph   57% 0.00 in SCT
13:37 90.2 °F 73.9 °F 30.11 in WNW 8.2 mph   59% 0.00 in SCT
13:42 90.2 °F 71.8 °F 30.11 in SW 8.2 mph   55% 0.00 in SCT
13:47 90.1 °F 70.1 °F 30.11 in West 8.2 mph   52% 0.00 in SCT
13:52 90.1 °F 70.7 °F 30.11 in ENE 8.2 mph   53% 0.00 in SCT
13:57 90.0 °F 70.6 °F 30.11 in WNW 8.2 mph   53% 0.00 in SCT
14:02 89.9 °F 69.9 °F 30.11 in WNW 8.2 mph   52% 0.00 in SCT
14:07 89.8 °F 69.8 °F 30.10 in WSW 8.2 mph 8.2 mph 52% 0.00 in SCT
14:13 89.9 °F 72.1 °F 30.10 in WSW 8.2 mph 8.2 mph 56% 0.00 in SCT
14:18 89.8 °F 70.9 °F 30.10 in SW 8.2 mph   54% 0.00 in SCT
14:23 90.2 °F 72.4 °F 30.10 in SW 8.2 mph   56% 0.00 in SCT
14:28 90.0 °F 72.2 °F 30.10 in West 8.2 mph 8.2 mph 56% 0.00 in SCT
14:33 89.6 °F 72.3 °F 30.10 in West 8.2 mph   57% 0.00 in SCT
14:38 89.4 °F 71.1 °F 30.10 in WSW 8.2 mph   55% 0.00 in SCT
14:43 89.7 °F 73.5 °F 30.09 in WSW 8.2 mph 8.2 mph 59% 0.00 in SCT
14:48 89.5 °F 71.7 °F 30.09 in SW 8.2 mph 8.2 mph 56% 0.00 in SCT
14:53 89.0 °F 72.3 °F 30.09 in SW 8.2 mph   58% 0.00 in SCT
14:58 89.0 °F 72.3 °F 30.09 in SW 8.2 mph 8.2 mph 58% 0.00 in SCT
15:03 88.9 °F 70.6 °F 30.09 in North 8.2 mph 8.2 mph 55% 0.00 in SCT
15:08 88.8 °F 68.9 °F 30.09 in West 8.2 mph 8.2 mph 52% 0.00 in SCT
15:13 89.0 °F 71.3 °F 30.09 in NNW 8.2 mph 8.2 mph 56% 0.00 in SCT
15:18 89.1 °F 70.3 °F 30.09 in SSW 8.2 mph 8.2 mph 54% 0.00 in SCT
15:23 88.7 °F 72.0 °F 30.08 in NW 8.2 mph   58% 0.00 in BKN
15:28 88.4 °F 70.7 °F 30.08 in WSW 8.2 mph   56% 0.00 in BKN
15:33 88.6 °F 71.4 °F 30.08 in SW 8.2 mph 8.2 mph 57% 0.00 in BKN
15:38 88.5 °F 70.3 °F 30.08 in North 8.2 mph   55% 0.00 in BKN
15:43 88.5 °F 69.2 °F 30.08 in West 8.2 mph   53% 0.00 in BKN
15:48 88.4 °F 69.6 °F 30.08 in ENE 8.2 mph   54% 0.00 in BKN
15:53 88.4 °F 70.7 °F 30.07 in ENE 8.2 mph   56% 0.00 in BKN
15:58 88.4 °F 70.2 °F 30.07 in NNW 8.2 mph 8.2 mph 55% 0.00 in BKN
16:04 88.5 °F 71.3 °F 30.07 in NE 8.2 mph 8.2 mph 57% 0.00 in BKN
16:09 88.4 °F 70.7 °F 30.07 in ENE 8.2 mph 8.2 mph 56% 0.00 in BKN
16:14 88.2 °F 70.5 °F 30.07 in SSW 8.2 mph   56% 0.00 in BKN
16:19 88.0 °F 69.8 °F 30.07 in SW 8.2 mph 8.2 mph 55% 0.00 in BKN
16:24 88.2 °F 69.5 °F 30.06 in NW 8.2 mph   54% 0.00 in BKN
16:29 88.2 °F 70.0 °F 30.06 in West 8.2 mph 8.2 mph 55% 0.00 in BKN
16:34 88.1 °F 71.5 °F 30.06 in West 8.2 mph   58% 0.00 in BKN
16:39 88.1 °F 69.4 °F 30.06 in West 8.2 mph 8.2 mph 54% 0.00 in BKN
16:44 88.3 °F 70.6 °F 30.06 in West 8.2 mph   56% 0.00 in BKN
16:49 88.4 °F 69.1 °F 30.06 in West 8.2 mph   53% 0.00 in BKN
16:54 88.5 °F 69.7 °F 30.06 in West 8.2 mph 8.2 mph 54% 0.00 in BKN
16:59 88.7 °F 69.9 °F 30.06 in WNW 8.2 mph 8.2 mph 54% 0.00 in BKN
17:05 88.7 °F 70.5 °F 30.05 in WNW 8.2 mph   55% 0.00 in BKN
17:10 88.9 °F 70.6 °F 30.06 in Calm   1.0 mph 55% 0.00 in BKN
17:15 89.1 °F 70.3 °F 30.05 in Calm   1.0 mph 54% 0.00 in BKN
17:20 89.6 °F 70.8 °F 30.05 in Calm   1.0 mph 54% 0.00 in SCT
17:25 90.0 °F 72.2 °F 30.05 in North 8.2 mph   56% 0.00 in SCT
17:30 89.9 °F 70.5 °F 30.05 in NE 8.2 mph 8.2 mph 53% 0.00 in SCT
17:35 89.7 °F 71.9 °F 30.05 in Calm   1.0 mph 56% 0.00 in SCT
17:40 89.3 °F 71.5 °F 30.05 in Calm   1.0 mph 56% 0.00 in SCT
17:45 88.9 °F 70.6 °F 30.05 in WSW 8.2 mph 8.2 mph 55% 0.00 in SCT
17:50 88.7 °F 71.0 °F 30.04 in Calm     56% 0.00 in SCT
17:55 88.5 °F 71.3 °F 30.05 in North 8.2 mph 8.2 mph 57% 0.00 in SCT
18:00 88.3 °F 71.6 °F 30.05 in NE 8.2 mph   58% 0.00 in SCT
18:05 88.1 °F 70.9 °F 30.05 in Calm   1.0 mph 57% 0.00 in SCT
18:10 88.1 °F 70.9 °F 30.05 in Calm   2.0 mph 57% 0.00 in SCT
18:15 88.5 °F 70.2 °F 30.05 in Calm     55% 0.00 in SCT
18:20 88.5 °F 69.7 °F 30.05 in Calm   1.0 mph 54% 0.00 in SCT
18:25 88.1 °F 69.4 °F 30.05 in Calm   1.0 mph 54% 0.00 in SCT
18:30 87.9 °F 69.2 °F 30.05 in Calm     54% 0.00 in SCT
18:35 87.6 °F 69.4 °F 30.05 in Calm   1.0 mph 55% 0.00 in SCT
18:40 87.2 °F 70.6 °F 30.05 in Calm     58% 0.00 in SCT
18:45 86.7 °F 68.6 °F 30.05 in Calm   1.0 mph 55% 0.00 in SCT
18:50 86.4 °F 66.7 °F 30.05 in Calm   1.0 mph 52% 0.00 in SCT
18:55 86.2 °F 67.6 °F 30.05 in Calm   1.0 mph 54% 0.00 in SCT
19:00 85.9 °F 67.3 °F 30.05 in North 8.2 mph   54% 0.00 in SCT
19:05 85.7 °F 67.7 °F 30.05 in Calm     55% 0.00 in SCT
19:10 85.5 °F 68.5 °F 30.05 in Calm     57% 0.00 in SCT
19:15 85.0 °F 68.6 °F 30.05 in Calm     58% 0.00 in SCT
19:20 84.7 °F 68.3 °F 30.05 in Calm     58% 0.00 in SCT
19:25 84.5 °F 68.6 °F 30.05 in Calm     59% 0.00 in SCT
19:30 84.3 °F 68.4 °F 30.05 in NE 8.2 mph   59% 0.00 in SCT
19:35 84.1 °F 68.7 °F 30.06 in Calm     60% 0.00 in SCT
19:40 83.8 °F 69.0 °F 30.06 in Calm     61% 0.00 in SCT
19:45 83.6 °F 69.2 °F 30.06 in Calm   1.0 mph 62% 0.00 in SCT
19:50 83.2 °F 68.8 °F 30.06 in NE 8.2 mph   62% 0.00 in SCT
19:55 83.0 °F 69.1 °F 30.06 in NE 8.2 mph   63% 0.00 in SCT
20:00 82.8 °F 68.9 °F 30.06 in NE 8.2 mph   63% 0.00 in SCT
20:05 82.6 °F 69.2 °F 30.06 in NE 8.2 mph 8.2 mph 64% 0.00 in SCT
20:10 82.4 °F 69.9 °F 30.06 in NE 8.2 mph   66% 0.00 in SCT
20:15 82.2 °F 69.3 °F 30.06 in NE 8.2 mph   65% 0.00 in SCT
20:20 82.0 °F 69.1 °F 30.06 in NE 8.2 mph   65% 0.00 in SCT
20:25 81.9 °F 69.4 °F 30.06 in NE 8.2 mph   66% 0.00 in SCT
20:30 81.7 °F 69.7 °F 30.06 in NE 8.2 mph   67% 0.00 in SCT
20:35 81.4 °F 69.4 °F 30.06 in NE 8.2 mph   67% 0.00 in SCT
20:40 81.2 °F 69.6 °F 30.06 in NE 8.2 mph   68% 0.00 in SCT
20:46 81.1 °F 69.1 °F 30.06 in NE 8.2 mph   67% 0.00 in SCT
20:51 81.0 °F 69.4 °F 30.07 in NE 8.2 mph   68% 0.00 in SCT
20:56 80.8 °F 69.7 °F 30.06 in NE 8.2 mph   69% 0.00 in SCT
21:01 80.6 °F 69.1 °F 30.07 in NE 8.2 mph   68% 0.00 in SCT
21:06 80.3 °F 69.2 °F 30.07 in NE 8.2 mph   69% 0.00 in SCT
21:11 80.2 °F 69.1 °F 30.06 in NE 8.2 mph   69% 0.00 in SCT
21:16 80.2 °F 69.1 °F 30.06 in NE 8.2 mph   69% 0.00 in SCT
21:21 80.1 °F 69.0 °F 30.06 in NE 8.2 mph   69% 0.00 in FEW
21:26 79.9 °F 69.2 °F 30.06 in NE 8.2 mph   70% 0.00 in FEW
21:31 79.7 °F 69.5 °F 30.07 in NE 8.2 mph   71% 0.00 in FEW
21:36 79.4 °F 69.6 °F 30.07 in NE 8.2 mph   72% 0.00 in FEW
21:41 79.2 °F 69.4 °F 30.07 in NE 8.2 mph   72% 0.00 in FEW
21:46 79.0 °F 69.6 °F 30.07 in NE 8.2 mph   73% 0.00 in FEW
21:51 78.8 °F 69.4 °F 30.07 in NE 8.2 mph   73% 0.00 in FEW
21:56 78.6 °F 69.6 °F 30.07 in NE 8.2 mph   74% 0.00 in FEW
22:02 78.4 °F 69.4 °F 30.07 in NE 8.2 mph   74% 0.00 in FEW
22:07 78.3 °F 69.7 °F 30.07 in NE 8.2 mph   75% 0.00 in FEW
22:12 78.1 °F 69.5 °F 30.07 in NE 8.2 mph   75% 0.00 in FEW
22:17 78.0 °F 69.4 °F 30.07 in NE 8.2 mph   75% 0.00 in FEW
22:22 77.9 °F 69.7 °F 30.07 in NE 8.2 mph   76% 0.00 in FEW
22:27 77.7 °F 69.9 °F 30.07 in NE 8.2 mph   77% 0.00 in FEW
22:32 77.6 °F 70.2 °F 30.08 in NE 8.2 mph   78% 0.00 in FEW
22:37 77.4 °F 70.0 °F 30.07 in NE 8.2 mph   78% 0.00 in FEW
22:42 77.3 °F 70.3 °F 30.08 in NE 8.2 mph   79% 0.00 in FEW
22:43 77.3 °F 70.3 °F 30.08 in NE 8.2 mph   79% 0.00 in FEW
22:48 77.1 °F 70.1 °F 30.08 in NE 8.2 mph   79% 0.00 in FEW
22:53 77.0 °F 70.4 °F 30.08 in NE 8.2 mph   80% 0.00 in FEW
22:58 76.9 °F 70.3 °F 30.08 in NE 8.2 mph   80% 0.00 in FEW
23:03 76.8 °F 70.2 °F 30.08 in NE 8.2 mph   80% 0.00 in FEW
23:08 76.6 °F 70.0 °F 30.08 in NE 8.2 mph   80% 0.00 in FEW
23:13 76.6 °F 70.0 °F 30.08 in NE 8.2 mph   80% 0.00 in FEW
23:18 76.5 °F 70.2 °F 30.08 in NE 8.2 mph   81% 0.00 in FEW
23:23 76.4 °F 69.8 °F 30.08 in NE 8.2 mph   80% 0.00 in CLR
23:24 76.3 °F 69.7 °F 30.08 in NE 8.2 mph   80% 0.00 in CLR
23:29 76.3 °F 70.0 °F 30.08 in NE 8.2 mph   81% 0.00 in CLR
23:34 76.3 °F 70.0 °F 30.08 in NE 8.2 mph   81% 0.00 in CLR
23:39 76.1 °F 70.2 °F 30.08 in NE 8.2 mph   82% 0.00 in CLR
23:44 76.1 °F 70.2 °F 30.08 in NE 8.2 mph   82% 0.00 in CLR
23:49 75.9 °F 70.4 °F 30.08 in NE 8.2 mph   83% 0.00 in CLR
23:54 75.7 °F 70.2 °F 30.09 in NE 8.2 mph   83% 0.00 in CLR
23:59 75.7 °F 70.2 °F 30.09 in NE 8.2 mph   83% 0.00 in CLR
Piedmont Bend
Compliments of Weather Underground - 2 mb